Sublette, Illinois
Current Conditions -  °F | °C
As of 7:55 AM on Thursday 23 Oct 2014 (Local Time) from KRPJ Reporting Station
Haze Haze  
Wind Chill: 30°   Ceiling: Unl
Heat Index: 34°   Visibility: 4mi
Dew Point: 33°   Wind: 5mph
Humidity: 97%   Direction: 150°SSE
Pressure: 30.2"   Gusts: NA
Location:  41.64°N, 89.23°W
Report Text: KRPJ 231255Z AUTO 15004KT 4SM BR CLR 01/01 A3020 RMK AO2 T00100006
Loading
Personal Weather Stations






























Interactive Weather Map
Tropical Storm Tracking
New forecast layout! Learn more

10-Day Weather Forecast

Advertisements
Track Severe Weather on mobile